createdAt,value
2023-04-02T00:02:02.603Z,5.43
2023-04-02T00:05:03.898Z,4.85
2023-04-02T00:08:05.211Z,5.13
2023-04-02T00:11:06.522Z,6.03
2023-04-02T00:14:07.826Z,5.13
2023-04-02T00:17:09.123Z,4.40
2023-04-02T00:20:10.417Z,4.68
2023-04-02T00:23:11.733Z,4.80
2023-04-02T00:26:13.026Z,4.45
2023-04-02T00:29:14.325Z,4.07
2023-04-02T00:32:15.835Z,4.78
2023-04-02T00:35:17.234Z,4.78
2023-04-02T00:38:18.527Z,4.63
2023-04-02T00:41:19.840Z,4.63
2023-04-02T00:44:21.130Z,4.53
2023-04-02T00:47:22.438Z,4.63
2023-04-02T00:50:23.740Z,4.20
2023-04-02T00:53:25.017Z,4.03
2023-04-02T00:56:26.313Z,5.22
2023-04-02T00:59:27.610Z,4.00
2023-04-02T01:02:28.963Z,4.80
2023-04-02T01:05:30.356Z,4.72
2023-04-02T01:08:31.653Z,3.53
2023-04-02T01:11:32.954Z,5.40
2023-04-02T01:14:34.260Z,4.47
2023-04-02T01:17:35.563Z,4.30
2023-04-02T01:20:36.861Z,4.82
2023-04-02T01:23:38.180Z,3.70
2023-04-02T01:26:39.474Z,4.13
2023-04-02T01:29:40.752Z,4.50
2023-04-02T01:32:42.113Z,4.43
2023-04-02T01:35:43.440Z,4.25
2023-04-02T01:38:44.751Z,4.50
2023-04-02T01:41:46.049Z,4.00
2023-04-02T01:44:47.333Z,3.30
2023-04-02T01:47:48.658Z,3.97
2023-04-02T01:50:49.974Z,4.28
2023-04-02T01:53:51.276Z,3.75
2023-04-02T01:56:52.640Z,4.30
2023-04-02T01:59:53.961Z,4.63
2023-04-02T02:02:55.285Z,3.75
2023-04-02T02:05:56.635Z,5.35
2023-04-02T02:08:57.955Z,3.80
2023-04-02T02:11:59.231Z,4.30
2023-04-02T02:15:00.535Z,4.10
2023-04-02T02:18:01.861Z,3.53
2023-04-02T02:21:03.179Z,3.80
2023-04-02T02:24:04.471Z,4.00
2023-04-02T02:27:05.787Z,3.80
2023-04-02T02:30:07.086Z,3.47
2023-04-02T02:33:08.374Z,3.78
2023-04-02T02:36:09.759Z,4.10
2023-04-02T02:39:11.100Z,3.88
2023-04-02T02:42:12.403Z,3.35
2023-04-02T02:45:13.708Z,3.97
2023-04-02T02:48:14.991Z,4.43
2023-04-02T02:51:16.291Z,3.70
2023-04-02T02:54:17.584Z,3.90
2023-04-02T02:57:18.909Z,3.90
2023-04-02T03:00:20.249Z,3.07
2023-04-02T03:03:21.702Z,3.53
2023-04-02T03:06:23.125Z,3.13
2023-04-02T03:09:24.429Z,3.70
2023-04-02T03:12:25.748Z,3.42
2023-04-02T03:15:27.069Z,3.07
2023-04-02T03:18:28.400Z,3.95
2023-04-02T03:21:29.677Z,3.75
2023-04-02T03:24:30.971Z,3.40
2023-04-02T03:27:32.286Z,2.97
2023-04-02T03:30:33.591Z,3.43
2023-04-02T03:33:34.875Z,3.45
2023-04-02T03:36:36.171Z,3.40
2023-04-02T03:39:37.487Z,4.88
2023-04-02T03:42:38.801Z,3.45
2023-04-02T03:45:40.111Z,3.50
2023-04-02T03:48:42.634Z,4.00
2023-04-02T03:51:43.924Z,3.25
2023-04-02T03:54:54.037Z,3.00
2023-04-02T03:57:55.863Z,3.83
2023-04-02T04:00:57.167Z,3.23
2023-04-02T04:03:58.491Z,4.13
2023-04-02T04:06:59.818Z,3.83
2023-04-02T04:10:01.134Z,4.07
2023-04-02T04:13:02.439Z,3.08
2023-04-02T04:16:03.734Z,5.30
2023-04-02T04:19:05.095Z,3.25
2023-04-02T04:22:06.412Z,3.45
2023-04-02T04:25:07.736Z,3.85
2023-04-02T04:28:09.058Z,3.97
2023-04-02T04:31:10.347Z,3.20
2023-04-02T04:34:11.683Z,3.10
2023-04-02T04:37:12.978Z,3.70
2023-04-02T04:40:14.280Z,3.35
2023-04-02T04:43:15.578Z,4.25
2023-04-02T04:46:16.906Z,3.40
2023-04-02T04:49:18.271Z,3.72
2023-04-02T04:52:19.576Z,3.55
2023-04-02T04:55:20.870Z,3.85
2023-04-02T04:58:22.199Z,3.38
2023-04-02T05:01:23.536Z,3.50
2023-04-02T05:04:24.898Z,3.20
2023-04-02T05:07:26.210Z,3.25
2023-04-02T05:10:27.490Z,2.90
2023-04-02T05:13:28.783Z,3.70
2023-04-02T05:16:30.168Z,3.27
2023-04-02T05:19:31.516Z,4.10
2023-04-02T05:22:32.810Z,3.30
2023-04-02T05:25:34.393Z,4.93
2023-04-02T05:28:35.877Z,3.67
2023-04-02T05:31:37.242Z,3.33
2023-04-02T05:34:38.561Z,3.90
2023-04-02T05:37:39.887Z,3.55
2023-04-02T05:40:41.178Z,3.60
2023-04-02T05:43:42.488Z,3.78
2023-04-02T05:46:43.822Z,3.77
2023-04-02T05:49:45.152Z,3.60
2023-04-02T05:52:46.446Z,3.83
2023-04-02T05:55:47.762Z,3.78
2023-04-02T05:58:49.167Z,4.10
2023-04-02T06:01:50.556Z,4.27
2023-04-02T06:04:51.857Z,3.72
2023-04-02T06:07:53.152Z,4.15
2023-04-02T06:10:54.467Z,3.97
2023-04-02T06:13:55.793Z,4.30
2023-04-02T06:16:57.169Z,3.73
2023-04-02T06:19:58.571Z,4.47
2023-04-02T06:22:59.851Z,5.60
2023-04-02T06:26:01.194Z,4.40
2023-04-02T06:29:02.506Z,4.10
2023-04-02T06:32:03.820Z,4.30
2023-04-02T06:35:05.103Z,4.93
2023-04-02T06:38:06.372Z,4.25
2023-04-02T06:41:07.679Z,3.53
2023-04-02T06:44:08.980Z,4.50
2023-04-02T06:47:10.288Z,4.03
2023-04-02T06:50:11.580Z,4.30
2023-04-02T06:53:12.862Z,4.68
2023-04-02T06:56:14.152Z,5.22
2023-04-02T06:59:15.465Z,4.97
2023-04-02T07:02:16.775Z,5.37
2023-04-02T07:05:18.060Z,4.97
2023-04-02T07:08:19.368Z,6.55
2023-04-02T07:11:20.986Z,6.07
2023-04-02T07:14:22.408Z,6.32
2023-04-02T07:17:23.754Z,6.50
2023-04-02T07:20:25.128Z,5.97
2023-04-02T07:23:26.431Z,5.90
2023-04-02T07:26:27.749Z,5.93
2023-04-02T07:29:29.046Z,5.90
2023-04-02T07:32:30.374Z,6.47
2023-04-02T07:35:31.699Z,5.88
2023-04-02T07:38:33.072Z,6.15
2023-04-02T07:41:34.369Z,5.95
2023-04-02T07:44:35.685Z,6.65
2023-04-02T07:47:36.998Z,6.10
2023-04-02T07:50:38.328Z,5.97
2023-04-02T07:53:39.605Z,5.90
2023-04-02T07:56:40.907Z,6.47
2023-04-02T07:59:42.213Z,6.32
2023-04-02T08:02:43.544Z,6.73
2023-04-02T08:05:44.904Z,6.05
2023-04-02T08:08:46.204Z,6.32
2023-04-02T08:11:47.506Z,5.55
2023-04-02T08:14:48.806Z,5.03
2023-04-02T08:17:50.193Z,6.27
2023-04-02T08:20:51.533Z,5.90
2023-04-02T08:23:52.817Z,5.47
2023-04-02T08:26:54.126Z,4.97
2023-04-02T08:29:55.419Z,6.05
2023-04-02T08:32:56.764Z,4.50
2023-04-02T08:35:58.125Z,5.50
2023-04-02T08:38:59.458Z,5.07
2023-04-02T08:42:00.745Z,5.25
2023-04-02T08:45:08.100Z,5.47
2023-04-02T08:48:15.379Z,4.53
2023-04-02T08:51:16.694Z,5.28
2023-04-02T08:54:18.002Z,3.92
2023-04-02T08:57:19.452Z,5.10
2023-04-02T09:00:20.801Z,4.63
2023-04-02T09:03:22.101Z,4.50
2023-04-02T09:06:23.404Z,5.13
2023-04-02T09:09:24.706Z,5.18
2023-04-02T09:12:26.007Z,5.35
2023-04-02T09:15:27.320Z,4.97
2023-04-02T09:18:28.725Z,4.37
2023-04-02T09:21:30.050Z,4.25
2023-04-02T09:24:31.354Z,4.65
2023-04-02T09:27:32.642Z,4.55
2023-04-02T09:30:33.942Z,3.83
2023-04-02T09:33:35.238Z,4.80
2023-04-02T09:36:36.533Z,4.18
2023-04-02T09:39:37.832Z,3.80
2023-04-02T09:42:39.148Z,4.85
2023-04-02T09:45:40.457Z,3.70
2023-04-02T09:48:41.758Z,3.73
2023-04-02T09:51:43.045Z,4.00
2023-04-02T09:54:44.351Z,4.50
2023-04-02T09:57:45.637Z,3.47
2023-04-02T10:00:47.155Z,3.97
2023-04-02T10:03:48.768Z,3.70
2023-04-02T10:06:50.094Z,3.53
2023-04-02T10:09:51.376Z,3.95
2023-04-02T10:12:52.679Z,3.78
2023-04-02T10:15:53.974Z,4.05
2023-04-02T10:18:55.269Z,4.07
2023-04-02T10:21:56.568Z,3.60
2023-04-02T10:24:57.885Z,3.30
2023-04-02T10:27:59.193Z,3.30
2023-04-02T10:31:00.532Z,3.38
2023-04-02T10:34:01.853Z,3.37
2023-04-02T10:37:03.143Z,3.08
2023-04-02T10:40:04.446Z,3.55
2023-04-02T10:43:05.746Z,3.47
2023-04-02T10:46:07.060Z,4.22
2023-04-02T10:49:08.420Z,3.47
2023-04-02T10:52:09.762Z,3.45
2023-04-02T10:55:11.057Z,3.15
2023-04-02T10:58:12.363Z,2.67
2023-04-02T11:01:13.699Z,3.45
2023-04-02T11:04:15.044Z,2.77
2023-04-02T11:07:16.362Z,2.60
2023-04-02T11:10:17.669Z,3.45
2023-04-02T11:13:18.971Z,3.22
2023-04-02T11:16:20.369Z,2.80
2023-04-02T11:19:21.681Z,2.50
2023-04-02T11:22:23.000Z,2.67
2023-04-02T11:25:24.300Z,2.60
2023-04-02T11:28:25.591Z,2.58
2023-04-02T11:31:26.915Z,2.92
2023-04-02T11:34:28.208Z,2.80
2023-04-02T11:37:29.504Z,2.78
2023-04-02T11:40:30.806Z,2.92
2023-04-02T11:43:32.113Z,3.28
2023-04-02T11:46:33.440Z,2.90
2023-04-02T11:49:34.779Z,2.77
2023-04-02T11:52:36.158Z,2.25
2023-04-02T11:55:38.134Z,2.28
2023-04-02T11:58:39.691Z,2.53
2023-04-02T12:01:41.041Z,2.67
2023-04-02T12:04:42.369Z,2.37
2023-04-02T12:07:43.964Z,2.70
2023-04-02T12:10:45.296Z,2.50
2023-04-02T12:13:46.598Z,2.85
2023-04-02T12:16:47.909Z,2.10
2023-04-02T12:19:49.205Z,2.50
2023-04-02T12:22:50.732Z,3.08
2023-04-02T12:25:52.137Z,7.43
2023-04-02T12:28:53.572Z,56.47
2023-04-02T12:31:55.112Z,161.48
2023-04-02T12:34:56.425Z,96.80
2023-04-02T12:37:57.716Z,69.50
2023-04-02T12:40:59.267Z,108.18
2023-04-02T12:44:00.614Z,45.38
2023-04-02T12:47:01.922Z,25.52
2023-04-02T12:50:03.220Z,13.10
2023-04-02T12:53:04.514Z,27.13
2023-04-02T12:56:05.815Z,9.65
2023-04-02T12:59:07.156Z,19.90
2023-04-02T13:02:08.481Z,20.33
2023-04-02T13:05:09.815Z,7.30
2023-04-02T13:08:11.118Z,7.00
2023-04-02T13:11:12.425Z,10.70
2023-04-02T13:14:13.728Z,6.05
2023-04-02T13:17:15.034Z,8.05
2023-04-02T13:20:16.428Z,7.27
2023-04-02T13:23:17.752Z,10.65
2023-04-02T13:26:19.058Z,7.63
2023-04-02T13:29:20.672Z,7.43
2023-04-02T13:32:22.030Z,4.85
2023-04-02T13:35:23.639Z,7.33
2023-04-02T13:38:24.979Z,7.90
2023-04-02T13:41:26.560Z,8.60
2023-04-02T13:44:27.907Z,6.68
2023-04-02T13:47:29.649Z,6.85
2023-04-02T13:50:31.385Z,5.20
2023-04-02T13:53:32.759Z,4.85
2023-04-02T13:56:34.387Z,4.35
2023-04-02T13:59:36.151Z,5.80
2023-04-02T14:02:37.545Z,4.78
2023-04-02T14:05:39.365Z,7.17
2023-04-02T14:08:40.801Z,4.93
2023-04-02T14:11:42.118Z,5.30
2023-04-02T14:14:44.083Z,6.63
2023-04-02T14:17:45.513Z,6.88
2023-04-02T14:20:47.683Z,7.40
2023-04-02T14:23:49.693Z,6.47
2023-04-02T14:26:51.003Z,5.45
2023-04-02T14:29:52.311Z,4.57
2023-04-02T14:32:53.686Z,4.85
2023-04-02T14:35:55.130Z,7.30
2023-04-02T14:38:56.942Z,6.82
2023-04-02T14:41:58.325Z,4.22
2023-04-02T14:44:59.642Z,5.35
2023-04-02T14:48:01.000Z,5.95
2023-04-02T14:51:02.722Z,5.23
2023-04-02T14:54:04.416Z,4.65
2023-04-02T14:57:05.820Z,2.85
2023-04-02T15:00:07.423Z,2.92
2023-04-02T15:03:09.009Z,5.43
2023-04-02T15:06:10.462Z,2.73
2023-04-02T15:09:13.274Z,4.35
2023-04-02T15:12:15.078Z,2.50
2023-04-02T15:15:17.922Z,2.95
2023-04-02T15:18:22.192Z,2.80
2023-04-02T15:21:23.634Z,4.27
2023-04-02T15:24:25.283Z,5.03
2023-04-02T15:27:26.671Z,4.65
2023-04-02T15:30:28.030Z,3.72
2023-04-02T15:33:29.789Z,2.58
2023-04-02T15:36:31.347Z,3.87
2023-04-02T15:39:33.067Z,3.17
2023-04-02T15:42:34.614Z,3.33
2023-04-02T15:45:36.548Z,3.45
2023-04-02T15:48:38.480Z,2.55
2023-04-02T15:51:40.290Z,2.40
2023-04-02T15:54:41.978Z,3.95
2023-04-02T15:57:43.357Z,3.90
2023-04-02T16:00:44.714Z,2.30
2023-04-02T16:03:46.504Z,3.50
2023-04-02T16:06:47.912Z,5.13
2023-04-02T16:09:49.677Z,4.28
2023-04-02T16:12:51.287Z,4.18
2023-04-02T16:15:52.977Z,2.58
2023-04-02T16:18:54.434Z,3.33
2023-04-02T16:21:55.764Z,3.43
2023-04-02T16:24:57.308Z,3.67
2023-04-02T16:27:58.821Z,3.67
2023-04-02T16:31:00.383Z,2.30
2023-04-02T16:34:02.015Z,2.85
2023-04-02T16:37:03.735Z,2.30
2023-04-02T16:40:05.579Z,3.30
2023-04-02T16:43:07.107Z,2.17
2023-04-02T16:46:08.932Z,3.65
2023-04-02T16:49:10.754Z,2.13
2023-04-02T16:52:12.148Z,3.50
2023-04-02T16:55:13.709Z,3.03
2023-04-02T16:58:16.474Z,2.30
2023-04-02T17:01:18.285Z,3.00
2023-04-02T17:04:20.313Z,5.95
2023-04-02T17:07:21.722Z,2.47
2023-04-02T17:10:23.468Z,2.20
2023-04-02T17:13:25.116Z,2.50
2023-04-02T17:16:28.460Z,3.67
2023-04-02T17:19:30.231Z,2.17
2023-04-02T17:22:32.096Z,1.97
2023-04-02T17:25:33.957Z,2.17
2023-04-02T17:28:35.367Z,2.20
2023-04-02T17:31:37.204Z,2.20
2023-04-02T17:34:39.208Z,2.13
2023-04-02T17:37:40.617Z,3.17
2023-04-02T17:40:42.421Z,1.85
2023-04-02T17:43:44.248Z,2.55
2023-04-02T17:46:45.645Z,2.33
2023-04-02T17:49:47.380Z,2.15
2023-04-02T17:52:49.215Z,2.53
2023-04-02T17:55:51.977Z,2.63
2023-04-02T17:58:53.750Z,1.95
2023-04-02T18:01:55.511Z,3.00
2023-04-02T18:04:58.150Z,2.22
2023-04-02T18:08:00.105Z,2.00
2023-04-02T18:11:02.003Z,2.20
2023-04-02T18:14:03.882Z,1.90
2023-04-02T18:17:05.773Z,2.33
2023-04-02T18:20:08.909Z,2.13
2023-04-02T18:23:11.946Z,2.13
2023-04-02T18:26:13.775Z,2.20
2023-04-02T18:29:15.733Z,2.30
2023-04-02T18:32:19.216Z,1.95
2023-04-02T18:35:24.816Z,2.28
2023-04-02T18:38:26.628Z,2.10
2023-04-02T18:41:28.066Z,3.20
2023-04-02T18:44:29.917Z,1.90
2023-04-02T18:47:31.778Z,1.50
2023-04-02T18:50:33.736Z,3.05
2023-04-02T18:53:35.414Z,1.97
2023-04-02T18:56:36.763Z,2.15
2023-04-02T18:59:38.562Z,2.33
2023-04-02T19:02:40.456Z,1.80
2023-04-02T19:05:42.347Z,2.30
2023-04-02T19:08:44.466Z,1.87
2023-04-02T19:11:46.877Z,2.25
2023-04-02T19:14:50.918Z,2.28
2023-04-02T19:17:54.356Z,2.70
2023-04-02T19:20:56.823Z,2.15
2023-04-02T19:23:58.749Z,1.90
2023-04-02T19:27:00.149Z,2.22
2023-04-02T19:30:02.038Z,1.88
2023-04-02T19:33:04.070Z,2.08
2023-04-02T19:36:05.591Z,1.85
2023-04-02T19:39:07.359Z,2.00
2023-04-02T19:42:09.252Z,2.05
2023-04-02T19:45:10.784Z,2.28
2023-04-02T19:48:12.653Z,3.15
2023-04-02T19:51:14.532Z,2.10
2023-04-02T19:54:15.903Z,2.13
2023-04-02T19:57:18.313Z,2.38
2023-04-02T20:00:20.109Z,2.60
2023-04-02T20:03:21.985Z,1.85
2023-04-02T20:06:24.441Z,2.45
2023-04-02T20:09:26.308Z,2.23
2023-04-02T20:12:28.113Z,2.13
2023-04-02T20:15:29.905Z,3.60
2023-04-02T20:18:31.678Z,2.40
2023-04-02T20:21:33.534Z,2.35
2023-04-02T20:24:35.271Z,2.83
2023-04-02T20:27:37.075Z,2.50
2023-04-02T20:30:38.938Z,2.40
2023-04-02T20:33:40.580Z,2.50
2023-04-02T20:36:42.368Z,3.08
2023-04-02T20:39:43.776Z,2.87
2023-04-02T20:42:45.110Z,3.40
2023-04-02T20:45:46.724Z,3.38
2023-04-02T20:48:48.473Z,3.50
2023-04-02T20:51:49.865Z,3.20
2023-04-02T20:54:51.580Z,2.57
2023-04-02T20:57:52.994Z,2.60
2023-04-02T21:00:54.275Z,3.92
2023-04-02T21:03:55.577Z,2.53
2023-04-02T21:06:56.988Z,2.30
2023-04-02T21:09:58.387Z,2.40
2023-04-02T21:12:59.663Z,2.92
2023-04-02T21:16:01.029Z,2.20
2023-04-02T21:19:02.416Z,3.15
2023-04-02T21:22:03.722Z,2.83
2023-04-02T21:25:05.069Z,2.83
2023-04-02T21:28:06.376Z,2.72
2023-04-02T21:31:07.750Z,3.08
2023-04-02T21:34:09.077Z,2.67
2023-04-02T21:37:10.378Z,2.80
2023-04-02T21:40:11.684Z,2.50
2023-04-02T21:43:12.999Z,2.60
2023-04-02T21:46:14.273Z,2.53
2023-04-02T21:49:15.575Z,2.78
2023-04-02T21:52:16.860Z,2.60
2023-04-02T21:55:18.128Z,2.90
2023-04-02T21:58:19.430Z,2.17
2023-04-02T22:01:27.353Z,2.63
2023-04-02T22:04:29.272Z,2.72
2023-04-02T22:07:30.606Z,3.50
2023-04-02T22:10:31.884Z,2.30
2023-04-02T22:13:33.183Z,2.60
2023-04-02T22:16:34.612Z,2.55
2023-04-02T22:19:35.965Z,2.95
2023-04-02T22:22:37.255Z,2.50
2023-04-02T22:25:38.555Z,2.53
2023-04-02T22:28:39.849Z,2.67
2023-04-02T22:31:41.166Z,2.80
2023-04-02T22:34:42.455Z,3.05
2023-04-02T22:37:43.746Z,2.42
2023-04-02T22:40:45.047Z,2.30
2023-04-02T22:43:46.334Z,2.17
2023-04-02T22:46:47.624Z,2.47
2023-04-02T22:49:48.910Z,3.33
2023-04-02T22:52:50.196Z,2.30
2023-04-02T22:55:51.480Z,3.20
2023-04-02T22:58:52.777Z,2.50
2023-04-02T23:01:54.105Z,3.22
2023-04-02T23:04:55.458Z,2.65
2023-04-02T23:07:56.817Z,2.75
2023-04-02T23:10:58.130Z,3.60
2023-04-02T23:13:59.434Z,2.25
2023-04-02T23:17:00.723Z,2.10
2023-04-02T23:20:02.029Z,3.05
2023-04-02T23:23:03.327Z,2.88
2023-04-02T23:26:04.643Z,2.60
2023-04-02T23:29:05.918Z,3.13
2023-04-02T23:32:07.208Z,2.70
2023-04-02T23:35:08.545Z,2.53
2023-04-02T23:38:09.903Z,2.35
2023-04-02T23:41:11.227Z,2.57
2023-04-02T23:44:12.517Z,2.47
2023-04-02T23:47:13.818Z,2.70
2023-04-02T23:50:15.096Z,2.40
2023-04-02T23:53:16.398Z,2.85
2023-04-02T23:56:17.741Z,3.67
2023-04-02T23:59:19.029Z,2.97
